Hovedside
METAR-TAF:

METAR-TAF

Lufthavner :

Kemi, Finland

Kemi-Torneå lufthavn

breddegrad: 65-47N, lengdegrad: 024-35E, høyde over havet: 15 m

Gjeldene værobservasjon

Denne rapporten ble laget for 1 time og 13 minutter siden, klokken 09:50 UTC
Vind 13 kt fra Nord, skiftende mellom Nord og Nordøst
Temperatur 1°C
Luftfuktighet 75%
Trykk 1003 hPa
Sikt 10 km eller mer
Overskyet i en høyde av 2300 ft

METAR: EFKE 270950Z AUTO 01013KT 350V050 9999 OVC023 01/M03 Q1003

Tid: 14:03 (11:03 UTC)

Varsel

Denne rapporten ble laget for 2 timer og 27 minutter siden, klokken 08:36 UTC
Varsel gyldig fra 27. klokken 09 UTC til 27. klokken 18 UTC
Vind 12 kt fra Nord
Sikt 10 km eller mer
Brutte skyer i en høyde av 2000 ft
Midlertidig
fra 27. klokken 12 UTC til 27. klokken 16 UTC
Sikt: 4000 m
lett snø

TAF: EFKE 270836Z 2709/2718 36012KT 9999 BKN020 TEMPO 2712/2716 4000 -SN

Værobservasjoner og værvarsel for over 4000 flyplasser (METAR- og TAF-rapporter).

Tilgjengelige stasjoner er representert av de røde og gule prikkene på kartet.

Hold musepekeren over prikken for å se navnet på stasjonen.

Klikk så for å se værobservasjoner og -varsler.

For å forandre kartet kan du klikke på den grønne knappen med svart kryss for å zoome inn, på den grønne knappen med strek for å zoome ut, eller på de grønne pilene for å se tilstøtende kart.


METAR-TAF: